Time;durP1;ratioP1;P1;durP2;ratioP2;P2;SDS_P1;SDS_P2;PMS_P1;PMS_P2;Temp;Humidity;BMP_temperature;BMP_pressure;BME280_temperature;BME280_humidity;BME280_pressure;Samples;Min_cycle;Max_cycle;Signal;HPM_P1;HPM_P2
2022/12/03 00:01:23;;;;;;;25.73;18.77;;;5.00;99.90;;;;;;5097156;28;20685;-44
2022/12/03 00:03:48;;;;;;;23.23;17.87;;;5.00;99.90;;;;;;5096870;28;20192;-42
2022/12/03 00:06:14;;;;;;;23.17;17.80;;;4.90;96.20;;;;;;5097069;28;20177;-43
2022/12/03 00:08:40;;;;;;;22.07;17.43;;;4.90;28.50;;;;;;5096626;28;20378;-41
2022/12/03 00:11:05;;;;;;;22.17;17.70;;;4.80;1.00;;;;;;5095403;28;20614;-41
2022/12/03 00:13:31;;;;;;;22.77;17.13;;;4.80;1.00;;;;;;5096761;28;20192;-41
2022/12/03 00:15:57;;;;;;;22.73;18.37;;;4.70;1.00;;;;;;5096969;28;20196;-40
2022/12/03 00:18:22;;;;;;;22.07;18.17;;;4.60;1.00;;;;;;5096926;28;20578;-41
2022/12/03 00:20:48;;;;;;;22.30;19.07;;;4.60;1.00;;;;;;5096468;28;20177;-43
2022/12/03 00:23:13;;;;;;;23.70;17.90;;;4.50;1.00;;;;;;5095972;28;20215;-46
2022/12/03 00:25:39;;;;;;;23.43;17.37;;;4.50;1.00;;;;;;5096135;28;20172;-43
2022/12/03 00:28:04;;;;;;;24.67;18.47;;;4.40;1.00;;;;;;5095983;28;20242;-40
2022/12/03 00:30:30;;;;;;;23.13;17.10;;;4.40;1.00;;;;;;5095683;28;20567;-43
2022/12/03 00:32:56;;;;;;;23.83;17.67;;;4.30;1.00;;;;;;5096744;28;20180;-42
2022/12/03 00:35:21;;;;;;;23.20;17.47;;;4.30;99.90;;;;;;5097281;28;20188;-41
2022/12/03 00:37:47;;;;;;;23.20;19.10;;;4.20;99.90;;;;;;5096931;28;20242;-40
2022/12/03 00:40:12;;;;;;;23.07;17.30;;;4.10;99.90;;;;;;5096657;28;20176;-40
2022/12/03 00:42:38;;;;;;;23.43;17.50;;;4.10;99.90;;;;;;5098079;28;20180;-40
2022/12/03 00:45:04;;;;;;;26.87;19.17;;;4.10;99.90;;;;;;5097463;28;20177;-42
2022/12/03 00:47:30;;;;;;;23.30;17.30;;;4.00;99.90;;;;;;5097405;28;20195;-41
2022/12/03 00:49:55;;;;;;;23.00;18.00;;;3.90;99.90;;;;;;5097220;28;20418;-41
2022/12/03 00:52:21;;;;;;;24.47;19.40;;;3.90;99.90;;;;;;5098289;28;20263;-40
2022/12/03 00:54:47;;;;;;;23.73;17.57;;;3.80;99.90;;;;;;5080146;28;20172;-41
2022/12/03 00:57:12;;;;;;;24.37;17.67;;;3.80;99.90;;;;;;5097450;28;20340;-40
2022/12/03 00:59:38;;;;;;;22.70;18.27;;;3.80;99.90;;;;;;5095966;28;20184;-41
2022/12/03 01:02:04;;;;;;;25.97;18.77;;;3.70;99.90;;;;;;5094136;28;20265;-43
2022/12/03 01:04:29;;;;;;;25.00;18.67;;;3.70;99.90;;;;;;5095590;28;20212;-41
2022/12/03 01:06:56;;;;;;;24.33;17.43;;;3.60;93.50;;;;;;5096647;28;20536;-41
2022/12/03 01:09:22;;;;;;;26.13;20.27;;;3.60;73.40;;;;;;5097020;28;20413;-42
2022/12/03 01:11:47;;;;;;;27.43;20.43;;;3.50;55.60;;;;;;5098153;28;20250;-42
2022/12/03 01:14:15;;;;;;;24.23;17.27;;;3.50;21.70;;;;;;5080217;28;20184;-41
2022/12/03 01:16:41;;;;;;;23.67;18.00;;;3.50;1.00;;;;;;5097546;28;20271;-42
2022/12/03 01:19:09;;;;;;;23.90;16.87;;;3.50;1.00;;;;;;5098339;28;20830;-43
2022/12/03 01:21:35;;;;;;;26.90;18.53;;;3.40;1.00;;;;;;5080082;28;20487;-41
2022/12/03 01:24:01;;;;;;;23.43;17.27;;;3.40;1.00;;;;;;5096496;28;20888;-41
2022/12/03 01:26:27;;;;;;;22.70;18.00;;;3.40;1.00;;;;;;5079607;28;20806;-42
2022/12/03 01:28:53;;;;;;;25.73;19.57;;;3.30;1.00;;;;;;5097269;28;20461;-41
2022/12/03 01:34:03;;;;;;;25.47;16.67;;;3.30;1.00;;;;;;5095965;28;20179;-41
2022/12/03 01:36:28;;;;;;;25.07;18.20;;;3.30;27.60;;;;;;5098183;28;20426;-42
2022/12/03 01:38:54;;;;;;;23.00;17.60;;;3.30;85.80;;;;;;5079744;28;20255;-42
2022/12/03 01:41:21;;;;;;;22.90;17.30;;;3.40;99.90;;;;;;5063423;28;20176;-42
2022/12/03 01:43:48;;;;;;;22.20;17.30;;;3.40;99.90;;;;;;5077020;28;20216;-42
2022/12/03 01:46:18;;;;;;;25.23;16.97;;;3.40;99.90;;;;;;5077244;28;20426;-42
2022/12/03 01:48:44;;;;;;;26.03;18.80;;;3.40;99.90;;;;;;5094505;28;20426;-42
2022/12/03 01:51:11;;;;;;;24.17;17.70;;;3.50;99.90;;;;;;5076255;28;20513;-42
2022/12/03 01:53:36;;;;;;;28.73;19.67;;;3.50;1.00;;;;;;5075601;28;20423;-42
2022/12/03 01:56:02;;;;;;;23.93;17.43;;;3.50;1.00;;;;;;5094581;28;20426;-41
2022/12/03 01:58:28;;;;;;;23.53;18.13;;;3.60;1.00;;;;;;5078226;28;20272;-42
2022/12/03 02:00:56;;;;;;;19.70;15.50;;;3.60;1.00;;;;;;5095990;28;20196;-41
2022/12/03 02:03:24;;;;;;;20.50;16.53;;;3.60;1.00;;;;;;5059781;28;20900;-40
2022/12/03 02:05:51;;;;;;;22.17;16.20;;;3.70;1.00;;;;;;5094137;28;20493;-42
2022/12/03 02:08:33;;;;;;;21.93;17.10;;;3.70;1.00;;;;;;5077577;28;20414;-42
2022/12/03 02:11:05;;;;;;;22.97;17.00;;;3.80;1.00;;;;;;5096115;28;20942;-43
2022/12/03 02:13:31;;;;;;;21.33;16.57;;;3.80;1.00;;;;;;5095805;28;20804;-43
2022/12/03 02:15:57;;;;;;;22.73;17.73;;;3.80;1.00;;;;;;5076762;28;20429;-42
2022/12/03 02:18:22;;;;;;;22.40;17.70;;;3.80;1.00;;;;;;5060454;28;20819;-42
2022/12/03 02:21:25;;;;;;;19.00;16.27;;;3.80;1.00;;;;;;5093871;28;20411;-42
2022/12/03 02:23:56;;;;;;;22.80;17.47;;;3.90;1.00;;;;;;5078380;28;20301;-43
2022/12/03 02:26:22;;;;;;;22.07;16.00;;;3.90;1.00;;;;;;5077584;28;20426;-42
2022/12/03 02:28:48;;;;;;;22.93;18.07;;;3.90;7.80;;;;;;5096146;28;20873;-43
2022/12/03 02:32:09;;;;;;;21.43;16.30;;;3.90;7.10;;;;;;5097500;28;20177;-42
2022/12/03 02:34:41;;;;;;;20.13;16.17;;;3.90;19.80;;;;;;5096857;28;20579;-42
2022/12/03 02:37:10;;;;;;;20.40;15.70;;;4.00;24.20;;;;;;5097046;28;20403;-43
2022/12/03 02:39:38;;;;;;;20.47;15.80;;;4.00;21.20;;;;;;5094605;28;20513;-42
2022/12/03 02:44:48;;;;;;;23.27;16.83;;;4.00;25.30;;;;;;5080671;28;20530;-42
2022/12/03 02:47:14;;;;;;;23.47;16.60;;;4.00;24.70;;;;;;5095841;28;20751;-41
2022/12/03 02:49:40;;;;;;;21.10;15.97;;;4.00;30.60;;;;;;5095183;28;20176;-42
2022/12/03 02:52:05;;;;;;;21.70;16.70;;;4.00;44.60;;;;;;5094020;28;20480;-42
2022/12/03 02:54:31;;;;;;;23.50;17.13;;;4.00;75.00;;;;;;5077074;28;20263;-41
2022/12/03 02:56:57;;;;;;;23.40;16.90;;;4.00;96.80;;;;;;5078331;28;20243;-41
2022/12/03 02:59:23;;;;;;;23.00;17.13;;;4.00;99.90;;;;;;5094420;28;20185;-42
2022/12/03 03:01:48;;;;;;;20.87;15.33;;;4.00;99.90;;;;;;5077521;28;20699;-41
2022/12/03 03:04:14;;;;;;;24.10;18.00;;;4.10;98.10;;;;;;5095146;28;20217;-41
2022/12/03 03:06:40;;;;;;;23.03;16.60;;;4.10;99.90;;;;;;5095675;28;20250;-42
2022/12/03 03:09:06;;;;;;;25.97;17.30;;;4.10;99.90;;;;;;5075956;28;20188;-43
2022/12/03 03:11:31;;;;;;;23.80;17.40;;;4.10;99.90;;;;;;5094711;28;20220;-42
2022/12/03 03:13:57;;;;;;;27.10;18.57;;;4.10;99.90;;;;;;5094675;28;20559;-42
2022/12/03 03:16:23;;;;;;;26.23;19.30;;;4.10;99.90;;;;;;5095139;28;20532;-42
2022/12/03 03:18:48;;;;;;;25.83;18.63;;;4.10;99.90;;;;;;5093677;28;20581;-45
2022/12/03 03:21:14;;;;;;;24.40;18.77;;;4.10;99.90;;;;;;5097068;28;20172;-43
2022/12/03 03:23:39;;;;;;;25.67;18.30;;;4.10;99.90;;;;;;5098754;28;20220;-41
2022/12/03 03:26:07;;;;;;;24.77;18.17;;;4.20;99.90;;;;;;5101264;28;20241;-38
2022/12/03 03:28:42;;;;;;;25.83;18.27;;;4.20;99.90;;;;;;5081158;28;20176;-41
2022/12/03 03:31:10;;;;;;;24.00;17.90;;;4.20;99.90;;;;;;5098817;28;20478;-42
2022/12/03 03:33:38;;;;;;;25.80;18.47;;;4.20;99.90;;;;;;5098646;28;20738;-41
2022/12/03 03:36:04;;;;;;;25.33;18.20;;;4.20;99.90;;;;;;5081169;28;20410;-41
2022/12/03 03:38:31;;;;;;;24.97;18.33;;;4.20;99.90;;;;;;5099304;28;20860;-41
2022/12/03 03:40:58;;;;;;;26.80;17.70;;;4.20;99.90;;;;;;5099281;28;20497;-43
2022/12/03 03:43:24;;;;;;;24.43;18.27;;;4.20;99.90;;;;;;5081329;28;20481;-42
2022/12/03 03:45:50;;;;;;;26.83;18.93;;;4.20;99.90;;;;;;5080178;28;20406;-42
2022/12/03 03:48:16;;;;;;;22.93;17.53;;;4.20;99.90;;;;;;5100156;28;20582;-40
2022/12/03 03:50:42;;;;;;;24.00;17.73;;;4.20;99.90;;;;;;5099730;28;20733;-43
2022/12/03 03:53:08;;;;;;;23.87;18.20;;;4.20;99.90;;;;;;5100045;28;20437;-42
2022/12/03 03:55:34;;;;;;;25.50;18.63;;;4.30;99.90;;;;;;5099860;28;20406;-41
2022/12/03 03:58:00;;;;;;;22.80;16.80;;;4.30;99.90;;;;;;5099499;28;20460;-43
2022/12/03 04:00:26;;;;;;;23.93;16.97;;;4.30;99.90;;;;;;5100168;28;20554;-41
2022/12/03 04:02:52;;;;;;;25.47;17.93;;;4.30;99.90;;;;;;5099889;28;20295;-42
2022/12/03 04:05:19;;;;;;;21.90;16.77;;;4.30;99.90;;;;;;5099339;28;20574;-43
2022/12/03 04:07:45;;;;;;;21.50;16.57;;;4.20;99.90;;;;;;5100088;28;20675;-43
2022/12/03 04:12:58;;;;;;;23.60;16.87;;;4.30;99.90;;;;;;5100071;28;20847;-44
2022/12/03 04:15:24;;;;;;;26.13;17.30;;;4.30;99.90;;;;;;5100003;28;20406;-42
2022/12/03 04:20:34;;;;;;;23.93;18.23;;;4.30;99.90;;;;;;5099269;28;20402;-41
2022/12/03 04:22:59;;;;;;;25.00;17.23;;;4.30;99.90;;;;;;5096480;28;20478;-42
2022/12/03 04:30:53;;;;;;;25.03;17.67;;;4.30;99.90;;;;;;5098808;28;20398;-43
2022/12/03 04:36:03;;;;;;;24.47;18.23;;;4.30;99.90;;;;;;5098141;28;20187;-42
2022/12/03 04:38:29;;;;;;;24.67;17.93;;;4.30;99.90;;;;;;5099320;28;20435;-43
2022/12/03 04:41:02;;;;;;;24.07;18.07;;;4.30;99.90;;;;;;5099399;28;20745;-41
2022/12/03 04:44:31;;;;;;;22.47;16.70;;;4.30;60.40;;;;;;5097707;28;20212;-42
2022/12/03 04:46:20;;;;;;;21.20;17.13;;;4.30;23.10;;;;;;5097437;28;20866;-42
2022/12/03 04:48:45;;;;;;;22.43;16.47;;;4.30;11.10;;;;;;5098615;28;20462;-42
2022/12/03 04:51:11;;;;;;;21.90;17.00;;;4.30;10.90;;;;;;5098456;28;20551;-42
2022/12/03 04:53:37;;;;;;;22.40;16.93;;;4.30;5.10;;;;;;5097215;28;20196;-41
2022/12/03 04:56:02;;;;;;;21.00;15.73;;;4.30;8.20;;;;;;5097195;28;20181;-41
2022/12/03 04:58:28;;;;;;;22.27;16.90;;;4.30;3.20;;;;;;5098378;28;20176;-40
2022/12/03 05:00:54;;;;;;;25.67;18.20;;;4.40;7.20;;;;;;5097932;28;20185;-43
2022/12/03 05:03:19;;;;;;;23.87;18.20;;;4.30;1.80;;;;;;5098200;28;20208;-42
2022/12/03 05:05:45;;;;;;;21.30;16.27;;;4.40;1.00;;;;;;5097396;28;20321;-45
2022/12/03 05:08:11;;;;;;;22.30;17.97;;;4.40;1.00;;;;;;5098325;28;20215;-44
2022/12/03 05:10:37;;;;;;;21.20;17.40;;;4.40;1.00;;;;;;5098587;28;20524;-42
2022/12/03 05:13:03;;;;;;;22.37;17.00;;;4.40;1.00;;;;;;5099097;28;20192;-41
2022/12/03 05:15:28;;;;;;;23.87;17.67;;;4.40;1.00;;;;;;5097899;28;20406;-45
2022/12/03 05:17:54;;;;;;;24.20;18.70;;;4.40;1.00;;;;;;5097633;28;20188;-42
2022/12/03 05:23:04;;;;;;;21.40;17.00;;;4.40;1.00;;;;;;5098356;28;20238;-42
2022/12/03 05:25:29;;;;;;;21.97;17.80;;;4.40;1.00;;;;;;5098290;28;20609;-42
2022/12/03 05:27:55;;;;;;;20.80;16.50;;;4.40;1.00;;;;;;5097966;28;20184;-41
2022/12/03 05:30:21;;;;;;;23.43;16.83;;;4.40;1.00;;;;;;5098696;28;20175;-41
2022/12/03 05:32:47;;;;;;;23.57;17.20;;;4.40;1.00;;;;;;5097496;28;20165;-46
2022/12/03 05:35:12;;;;;;;20.93;16.53;;;4.40;1.00;;;;;;5097929;28;20425;-43
2022/12/03 05:37:38;;;;;;;22.27;16.90;;;4.40;1.00;;;;;;5097065;28;20168;-42
2022/12/03 05:40:04;;;;;;;24.17;17.27;;;4.40;1.00;;;;;;5098292;28;20173;-41
2022/12/03 05:45:14;;;;;;;23.87;16.77;;;4.40;1.00;;;;;;5097422;28;20471;-42
2022/12/03 05:47:40;;;;;;;23.10;17.00;;;4.40;1.00;;;;;;5094831;28;20402;-43
2022/12/03 05:50:06;;;;;;;25.43;18.13;;;4.40;1.00;;;;;;5096247;28;20169;-41
2022/12/03 05:52:31;;;;;;;22.50;16.73;;;4.40;1.00;;;;;;5096292;28;20168;-44
2022/12/03 05:54:57;;;;;;;19.93;15.33;;;4.50;1.00;;;;;;5095449;28;20430;-41
2022/12/03 05:57:23;;;;;;;22.83;16.27;;;4.40;1.00;;;;;;5095751;28;20225;-43
2022/12/03 05:59:48;;;;;;;21.97;17.00;;;4.50;1.00;;;;;;5094691;28;20230;-42
2022/12/03 06:02:14;;;;;;;22.10;17.00;;;4.50;1.00;;;;;;5095444;28;20280;-41
2022/12/03 06:04:39;;;;;;;21.90;16.70;;;4.50;1.00;;;;;;5095029;28;20204;-41
2022/12/03 06:07:05;;;;;;;23.37;18.20;;;4.50;1.00;;;;;;5094893;28;20168;-43
2022/12/03 06:09:31;;;;;;;22.23;17.43;;;4.50;1.00;;;;;;5094396;28;20462;-41
2022/12/03 06:11:56;;;;;;;25.50;18.70;;;4.50;1.00;;;;;;5094127;28;20514;-42
2022/12/03 06:14:22;;;;;;;21.47;15.83;;;4.50;1.00;;;;;;5093397;28;20352;-40
2022/12/03 06:16:48;;;;;;;24.03;17.10;;;4.50;1.00;;;;;;5092510;28;20165;-41
2022/12/03 06:19:14;;;;;;;22.93;18.20;;;4.50;1.00;;;;;;5093471;28;20460;-41
2022/12/03 06:21:39;;;;;;;23.20;17.23;;;4.50;1.00;;;;;;5094201;28;20453;-41
2022/12/03 06:24:05;;;;;;;24.03;17.60;;;4.50;1.00;;;;;;5095675;28;20216;-42
2022/12/03 06:26:31;;;;;;;23.30;16.80;;;4.50;1.00;;;;;;5078605;28;20574;-41
2022/12/03 06:28:56;;;;;;;21.50;16.70;;;4.50;1.00;;;;;;5096814;28;20422;-42
2022/12/03 06:31:22;;;;;;;22.50;16.47;;;4.50;99.90;;;;;;5096598;28;20180;-42
2022/12/03 06:33:48;;;;;;;22.30;17.23;;;4.50;99.90;;;;;;5096971;28;20184;-40
2022/12/03 06:36:13;;;;;;;22.97;16.80;;;4.50;99.90;;;;;;5079336;28;20261;-40
2022/12/03 06:38:39;;;;;;;24.13;17.63;;;4.50;99.90;;;;;;5096440;28;20320;-42
2022/12/03 06:41:04;;;;;;;22.27;17.97;;;4.50;99.90;;;;;;5092851;28;20268;-42
2022/12/03 06:43:30;;;;;;;27.30;18.87;;;4.50;99.90;;;;;;5094700;28;20273;-41
2022/12/03 06:45:56;;;;;;;22.90;17.33;;;4.50;99.90;;;;;;5095274;28;20176;-42
2022/12/03 06:48:21;;;;;;;22.30;17.00;;;4.50;99.90;;;;;;5095548;28;20180;-41
2022/12/03 06:50:47;;;;;;;24.40;18.40;;;4.50;99.90;;;;;;5095231;28;20462;-41
2022/12/03 06:53:12;;;;;;;26.17;17.33;;;4.50;99.90;;;;;;5095581;28;20204;-41
2022/12/03 06:55:38;;;;;;;23.23;16.80;;;4.50;99.90;;;;;;5096726;28;20173;-42
2022/12/03 06:58:04;;;;;;;20.87;16.90;;;4.50;99.90;;;;;;5080944;28;20535;-41
2022/12/03 07:00:29;;;;;;;22.47;17.93;;;4.50;99.90;;;;;;5081009;28;20589;-43
2022/12/03 07:02:55;;;;;;;22.90;16.17;;;4.50;99.90;;;;;;5081227;28;20245;-42
2022/12/03 07:05:21;;;;;;;21.87;16.77;;;4.60;99.90;;;;;;5100193;28;20941;-42
2022/12/03 07:07:51;;;;;;;22.93;17.13;;;4.60;99.90;;;;;;5080502;28;20164;-42
2022/12/03 07:10:20;;;;;;;23.30;18.37;;;4.50;99.90;;;;;;5082932;28;20303;-42
2022/12/03 07:12:45;;;;;;;21.87;16.97;;;4.60;99.90;;;;;;5098364;28;20514;-41
2022/12/03 07:15:11;;;;;;;21.67;16.57;;;4.60;99.90;;;;;;5096670;28;20875;-41
2022/12/03 07:17:37;;;;;;;22.43;16.83;;;4.60;99.90;;;;;;5098706;28;20172;-42
2022/12/03 07:20:05;;;;;;;25.20;19.37;;;4.60;99.90;;;;;;5080090;28;20176;-44
2022/12/03 07:22:31;;;;;;;21.23;16.43;;;4.70;99.90;;;;;;5097704;28;20188;-42
2022/12/03 07:24:57;;;;;;;25.20;17.80;;;4.60;99.90;;;;;;5098723;28;20930;-43
2022/12/03 07:27:25;;;;;;;25.20;16.70;;;4.70;99.90;;;;;;5107434;28;20314;-42
2022/12/03 07:29:51;;;;;;;21.70;16.50;;;4.70;99.90;;;;;;5097683;28;20174;-40
2022/12/03 07:32:16;;;;;;;21.67;16.57;;;4.70;99.90;;;;;;5098344;28;20413;-42
2022/12/03 07:34:42;;;;;;;22.23;17.17;;;4.70;99.90;;;;;;5099190;28;20176;-41
2022/12/03 07:37:08;;;;;;;22.03;17.47;;;4.70;99.90;;;;;;5098910;28;20176;-40
2022/12/03 07:39:33;;;;;;;20.53;15.17;;;4.70;99.90;;;;;;5097205;28;20210;-42
2022/12/03 07:41:59;;;;;;;23.07;16.27;;;4.80;99.90;;;;;;5097827;28;20280;-42
2022/12/03 07:44:25;;;;;;;22.00;17.13;;;4.80;99.90;;;;;;5098197;28;20586;-41
2022/12/03 07:46:50;;;;;;;20.77;15.90;;;4.80;99.90;;;;;;5097542;28;20172;-40
2022/12/03 07:49:17;;;;;;;23.70;16.37;;;4.80;99.90;;;;;;5098580;28;20851;-41
2022/12/03 07:51:52;;;;;;;23.70;17.60;;;4.80;99.90;;;;;;5079422;28;20226;-40
2022/12/03 07:54:18;;;;;;;19.70;15.63;;;4.90;99.90;;;;;;5097513;28;20463;-41
2022/12/03 07:56:44;;;;;;;22.57;17.37;;;4.90;99.90;;;;;;5098951;28;20422;-41
2022/12/03 07:59:09;;;;;;;21.80;16.43;;;4.90;99.90;;;;;;5097188;28;20426;-41
2022/12/03 08:01:35;;;;;;;24.10;18.10;;;4.90;99.90;;;;;;5095362;28;20330;-41
2022/12/03 08:04:00;;;;;;;24.40;19.00;;;5.00;99.90;;;;;;5095524;28;20812;-41
2022/12/03 08:06:26;;;;;;;22.40;15.97;;;5.00;98.30;;;;;;5094667;28;20446;-42
2022/12/03 08:08:52;;;;;;;24.70;17.03;;;5.00;93.60;;;;;;5093988;28;20257;-42
2022/12/03 08:11:17;;;;;;;23.10;16.80;;;5.00;45.40;;;;;;5095827;28;20281;-40
2022/12/03 08:13:43;;;;;;;27.20;17.70;;;5.00;1.00;;;;;;5096082;28;20196;-41
2022/12/03 08:16:20;;;;;;;24.17;18.30;;;5.10;1.00;;;;;;5098279;28;20181;-41
2022/12/03 08:18:46;;;;;;;23.60;17.60;;;5.10;1.00;;;;;;5098277;28;20179;-40
2022/12/03 08:21:14;;;;;;;26.37;19.90;;;5.10;1.00;;;;;;5098005;28;20556;-44
2022/12/03 08:23:40;;;;;;;27.43;18.97;;;5.10;1.00;;;;;;5098370;28;20474;-42
2022/12/03 08:26:16;;;;;;;25.10;18.43;;;5.10;1.00;;;;;;5095601;28;20513;-42
2022/12/03 08:28:42;;;;;;;24.00;18.13;;;5.20;1.00;;;;;;5077043;28;20410;-41
2022/12/03 08:31:18;;;;;;;24.47;17.17;;;5.20;1.00;;;;;;5093939;28;20862;-43
2022/12/03 08:33:46;;;;;;;23.63;17.60;;;5.20;1.00;;;;;;5078015;28;20831;-40
2022/12/03 08:36:23;;;;;;;22.80;16.83;;;5.30;1.00;;;;;;5094631;28;20446;-41
2022/12/03 08:39:30;;;;;;;24.63;17.73;;;5.30;1.00;;;;;;5096677;28;20422;-42
2022/12/03 08:45:30;;;;;;;24.57;17.70;;;5.40;1.00;;;;;;5098183;28;20594;-41
2022/12/03 08:47:57;;;;;;;26.97;17.20;;;5.40;99.90;;;;;;5097610;28;20692;-40
2022/12/03 08:50:35;;;;;;;26.13;18.10;;;5.50;99.90;;;;;;5097896;28;20411;-41
2022/12/03 08:53:13;;;;;;;24.83;17.53;;;5.50;99.90;;;;;;5063395;28;20426;-43
2022/12/03 08:55:51;;;;;;;27.60;20.90;;;5.50;99.90;;;;;;5097737;28;20619;-41
2022/12/03 08:58:23;;;;;;;26.77;19.53;;;5.50;99.90;;;;;;5097869;28;20517;-43
2022/12/03 09:01:00;;;;;;;25.07;18.50;;;5.50;99.90;;;;;;5098069;28;20887;-43
2022/12/03 09:03:29;;;;;;;27.70;18.03;;;5.50;99.90;;;;;;5079599;28;20465;-40
2022/12/03 09:05:55;;;;;;;23.20;18.80;;;5.50;99.90;;;;;;5095934;28;20794;-43
2022/12/03 09:08:20;;;;;;;24.00;18.43;;;5.50;99.90;;;;;;5077559;28;20418;-42
2022/12/03 09:10:46;;;;;;;24.77;17.57;;;5.40;99.90;;;;;;5095090;28;20220;-42
2022/12/03 09:13:11;;;;;;;27.07;18.70;;;5.50;99.90;;;;;;5096281;28;20180;-41
2022/12/03 09:15:37;;;;;;;24.00;17.77;;;5.50;99.90;;;;;;5096833;28;20270;-41
2022/12/03 09:18:03;;;;;;;24.57;17.03;;;5.50;99.90;;;;;;5097183;28;20245;-41
2022/12/03 09:20:28;;;;;;;23.47;17.87;;;5.50;99.90;;;;;;5097169;28;20172;-42
2022/12/03 09:22:54;;;;;;;24.20;19.20;;;5.50;99.90;;;;;;5095895;28;20223;-40
2022/12/03 09:25:20;;;;;;;25.13;18.00;;;5.50;99.90;;;;;;5095206;28;20168;-41
2022/12/03 09:27:45;;;;;;;23.80;17.70;;;5.60;63.20;;;;;;5096227;28;20261;-41
2022/12/03 09:30:11;;;;;;;25.60;18.33;;;5.60;28.40;;;;;;5097194;28;20219;-43
2022/12/03 09:32:37;;;;;;;23.03;17.40;;;5.60;1.00;;;;;;5096622;28;20237;-44
2022/12/03 09:35:02;;;;;;;23.07;17.10;;;5.70;1.00;;;;;;5094528;28;20855;-44
2022/12/03 09:37:28;;;;;;;25.07;17.23;;;5.70;1.00;;;;;;5094274;28;20172;-43
2022/12/03 09:39:54;;;;;;;22.33;17.00;;;5.80;1.00;;;;;;5094457;28;20440;-44
2022/12/03 09:42:19;;;;;;;20.07;14.97;;;5.90;1.00;;;;;;5093384;28;20177;-42
2022/12/03 09:44:45;;;;;;;22.63;16.23;;;6.00;1.00;;;;;;5059912;28;20218;-42
2022/12/03 09:47:11;;;;;;;24.07;18.30;;;6.20;1.00;;;;;;5095122;28;20183;-42
2022/12/03 09:49:37;;;;;;;25.30;17.70;;;6.30;99.90;;;;;;5094463;28;20462;-41
2022/12/03 09:52:04;;;;;;;20.50;15.30;;;6.40;99.90;;;;;;5095920;28;20263;-43
2022/12/03 09:54:31;;;;;;;19.47;15.27;;;6.50;1.00;;;;;;5076203;28;20614;-41
2022/12/03 09:56:59;;;;;;;23.93;15.73;;;6.60;1.00;;;;;;5094961;28;20425;-43
2022/12/03 09:59:37;;;;;;;23.00;16.87;;;6.60;1.00;;;;;;5094554;28;20438;-41
2022/12/03 10:02:02;;;;;;;24.27;17.20;;;6.70;99.90;;;;;;5094550;28;20541;-40
2022/12/03 10:04:28;;;;;;;25.27;17.53;;;6.60;99.90;;;;;;5075595;28;20576;-41
2022/12/03 10:06:56;;;;;;;24.93;16.90;;;6.60;55.50;;;;;;5075114;28;20183;-43
2022/12/03 10:09:24;;;;;;;23.87;18.20;;;6.60;6.30;;;;;;5076659;28;20426;-40
2022/12/03 10:11:50;;;;;;;27.77;18.83;;;6.60;1.00;;;;;;5096142;28;20744;-42
2022/12/03 10:14:17;;;;;;;25.30;17.57;;;6.60;1.00;;;;;;5094896;28;20715;-42
2022/12/03 10:16:43;;;;;;;25.20;18.53;;;6.50;1.00;;;;;;5094888;28;20187;-40
2022/12/03 10:19:21;;;;;;;8.37;4.73;;;6.50;99.90;;;;;;5078767;28;20841;-44
2022/12/03 10:21:47;;;;;;;15.70;7.67;;;8.20;1.00;;;;;;5079306;28;20176;-43
2022/12/03 10:24:15;;;;;;;18.20;10.30;;;9.50;1.00;;;;;;5095949;28;20477;-42
2022/12/03 10:26:41;;;;;;;14.57;10.50;;;10.30;1.00;;;;;;5095990;28;20172;-40
2022/12/03 10:29:13;;;;;;;15.60;11.07;;;11.10;1.00;;;;;;5096098;28;20681;-40
2022/12/03 10:31:39;;;;;;;14.33;11.20;;;11.40;79.50;;;;;;5096410;28;20414;-39
2022/12/03 10:34:05;;;;;;;14.33;11.87;;;11.50;1.00;;;;;;5097339;28;20438;-42
2022/12/03 10:36:31;;;;;;;14.80;10.30;;;11.70;99.90;;;;;;5099433;28;20168;-41
2022/12/03 10:39:11;;;;;;;13.27;11.40;;;11.80;1.00;;;;;;5097448;28;20522;-42
2022/12/03 10:41:38;;;;;;;18.67;14.40;;;12.00;99.90;;;;;;5080666;28;20172;-43
2022/12/03 10:44:15;;;;;;;19.20;15.20;;;11.60;1.00;;;;;;5097616;28;20481;-41
2022/12/03 10:46:41;;;;;;;23.13;18.40;;;11.10;1.00;;;;;;5099385;28;20409;-42
2022/12/03 10:49:18;;;;;;;23.93;17.20;;;10.50;1.00;;;;;;5108405;28;20449;-41
2022/12/03 10:51:47;;;;;;;20.67;16.70;;;9.90;1.00;;;;;;5118891;28;20535;-41
2022/12/03 10:54:20;;;;;;;22.47;17.07;;;9.40;99.90;;;;;;5119265;28;20584;-43
2022/12/03 10:56:47;;;;;;;24.30;18.60;;;9.00;99.90;;;;;;5117567;28;20417;-43
2022/12/03 10:59:21;;;;;;;23.40;17.70;;;8.70;99.90;;;;;;5083812;28;20437;-43
2022/12/03 11:01:47;;;;;;;23.43;19.23;;;8.40;99.90;;;;;;5099748;28;20473;-43
2022/12/03 11:04:23;;;;;;;21.83;17.13;;;8.20;99.90;;;;;;5085206;28;20909;-41
2022/12/03 11:06:49;;;;;;;22.17;16.87;;;8.00;99.90;;;;;;5119540;28;20406;-42
2022/12/03 11:09:27;;;;;;;23.57;17.23;;;7.80;97.90;;;;;;5119240;28;20487;-41
2022/12/03 11:11:53;;;;;;;24.23;16.90;;;7.70;99.90;;;;;;5116226;28;20559;-41
2022/12/03 11:14:50;;;;;;;23.80;18.40;;;7.60;99.90;;;;;;5116607;28;20448;-42
2022/12/03 11:17:40;;;;;;;11.80;8.03;;;7.50;38.20;;;;;;5116678;28;20410;-47
2022/12/03 11:20:34;;;;;;;12.27;9.50;;;8.80;1.00;;;;;;5116679;28;20582;-45
2022/12/03 11:23:00;;;;;;;13.23;9.87;;;10.00;1.00;;;;;;5116960;27;20440;-47
2022/12/03 11:25:26;;;;;;;11.87;8.30;;;10.60;1.00;;;;;;5117814;28;20676;-47
2022/12/03 11:28:12;;;;;;;13.13;9.13;;;11.50;99.90;;;;;;5118878;28;20430;-45
2022/12/03 11:30:50;;;;;;;16.17;12.00;;;12.20;1.00;;;;;;5115705;27;20263;-44
2022/12/03 11:33:21;;;;;;;15.67;12.23;;;12.30;99.90;;;;;;5114690;28;20448;-41
2022/12/03 11:36:01;;;;;;;15.40;13.30;;;12.00;1.00;;;;;;5116517;27;20417;-40
2022/12/03 11:38:50;;;;;;;18.27;14.07;;;11.50;99.90;;;;;;5114897;28;20432;-41
2022/12/03 11:41:22;;;;;;;20.30;16.10;;;10.80;1.00;;;;;;5114393;28;20461;-44
2022/12/03 11:43:59;;;;;;;19.80;16.10;;;10.20;99.90;;;;;;5113060;28;20471;-40
2022/12/03 11:46:43;;;;;;;19.87;16.10;;;9.70;98.10;;;;;;5114711;28;20409;-42
2022/12/03 11:49:25;;;;;;;19.90;15.33;;;9.30;32.80;;;;;;5117365;28;20428;-43
2022/12/03 11:51:50;;;;;;;22.40;17.10;;;9.00;1.00;;;;;;5118710;28;20425;-42
2022/12/03 11:54:18;;;;;;;21.60;16.57;;;8.70;1.00;;;;;;5118974;28;20421;-43
2022/12/03 11:56:46;;;;;;;22.07;17.17;;;8.50;1.00;;;;;;5117720;28;20176;-40
2022/12/03 11:59:12;;;;;;;23.73;18.23;;;8.30;99.90;;;;;;5118737;28;20502;-43
2022/12/03 12:01:42;;;;;;;20.70;16.00;;;8.10;99.90;;;;;;5119922;27;20746;-41
2022/12/03 12:04:27;;;;;;;20.97;16.60;;;8.00;99.90;;;;;;5119359;28;20484;-43
2022/12/03 12:06:52;;;;;;;20.43;15.57;;;7.80;99.90;;;;;;5118859;28;20409;-41
2022/12/03 12:09:53;;;;;;;21.80;17.30;;;7.70;99.90;;;;;;5116412;28;20432;-43
2022/12/03 12:12:36;;;;;;;23.20;16.77;;;7.60;99.90;;;;;;5118609;28;20232;-41
2022/12/03 12:15:36;;;;;;;22.30;16.33;;;7.40;99.90;;;;;;5118318;28;20422;-41
2022/12/03 12:18:47;;;;;;;20.60;16.10;;;7.40;99.90;;;;;;5117161;28;20417;-40
2022/12/03 12:21:38;;;;;;;20.00;15.93;;;7.30;99.90;;;;;;5111855;28;20422;-41
2022/12/03 12:24:29;;;;;;;21.80;16.13;;;7.20;99.90;;;;;;5115213;28;20473;-42
2022/12/03 12:26:56;;;;;;;22.10;16.40;;;7.10;99.90;;;;;;5116458;28;20420;-41
2022/12/03 12:29:22;;;;;;;22.07;15.67;;;7.10;99.90;;;;;;5116971;28;20607;-44
2022/12/03 12:31:48;;;;;;;21.23;15.80;;;7.00;99.90;;;;;;5116768;28;20406;-40
2022/12/03 12:34:15;;;;;;;20.20;15.80;;;7.00;1.00;;;;;;5116261;28;20252;-40
2022/12/03 12:36:41;;;;;;;18.70;15.00;;;6.90;1.00;;;;;;5115874;28;20597;-42
2022/12/03 12:39:13;;;;;;;20.17;14.50;;;6.90;1.00;;;;;;5116887;28;20512;-42
2022/12/03 12:41:41;;;;;;;21.30;16.00;;;6.90;1.00;;;;;;5114525;28;21114;-42
2022/12/03 12:44:12;;;;;;;20.57;15.27;;;6.80;1.00;;;;;;5116049;28;20469;-42
2022/12/03 12:46:40;;;;;;;20.20;14.50;;;6.70;1.00;;;;;;5115619;28;20428;-45
2022/12/03 12:49:10;;;;;;;21.93;14.60;;;6.70;1.00;;;;;;5113737;28;20624;-41
2022/12/03 12:51:39;;;;;;;22.43;15.17;;;6.70;1.00;;;;;;5114868;28;20410;-42
2022/12/03 12:54:10;;;;;;;21.03;15.80;;;6.60;1.00;;;;;;5115699;28;20866;-43
2022/12/03 12:56:36;;;;;;;20.93;15.33;;;6.60;1.00;;;;;;5115795;28;20410;-44
2022/12/03 12:59:22;;;;;;;24.67;15.10;;;6.60;1.00;;;;;;5114763;28;20432;-41
2022/12/03 13:01:49;;;;;;;20.20;15.20;;;6.60;1.00;;;;;;5114761;28;20448;-41
2022/12/03 13:04:17;;;;;;;21.67;15.53;;;6.60;1.00;;;;;;5113979;28;20503;-41
2022/12/03 13:06:43;;;;;;;27.40;17.30;;;6.50;1.00;;;;;;5113925;28;20870;-40
2022/12/03 13:09:18;;;;;;;19.90;14.70;;;6.50;1.00;;;;;;5113674;28;20708;-40
2022/12/03 13:11:45;;;;;;;25.37;15.80;;;6.40;1.00;;;;;;5114546;28;20882;-39
2022/12/03 13:14:22;;;;;;;23.93;15.57;;;6.40;1.00;;;;;;5115284;28;20452;-41
2022/12/03 13:16:49;;;;;;;26.27;14.97;;;6.40;1.00;;;;;;5115134;28;20409;-41